Flight Track Log - Related Links

Times and Time Zones

All times are in EDT time to prevent confusion due to time zone crossing. See the BAW2648 flight status page for this flight to view local times or setup timezone preferences in your user account.

Time Position Orientation Groundspeed Altitude Reporting Facility
EDT Latitude Longitude Course Direction KTS MPH feet Rate Location/Type
Wed 01:57:37 PM 51.1519 -0.1625 78° East 153 176 900  Level FlightAware ADS-B
Wed 01:57:56 PM 51.1549 -0.1418 77° East 161 185 1,600 1,886 Climbing FlightAware ADS-B
Wed 01:58:12 PM 51.1577 -0.1220 78° East 180 207 2,000 1,696 Climbing FlightAware ADS-B (EGLL / LHR)
Wed 01:58:42 PM 51.1632 -0.0794 81° East 215 247 2,900 1,875 Climbing FlightAware ADS-B (EGKK / LGW)
Wed 01:59:00 PM 51.1646 -0.0485 91° East 242 278 3,500 2,471 Climbing FlightAware ADS-B (EGKK / LGW)
Wed 01:59:16 PM 51.1646 -0.0202 90° East 251 289 4,300 3,273 Climbing FlightAware ADS-B
Wed 01:59:33 PM 51.1647 0.0131 89° East 260 299 5,300 3,366 Climbing FlightAware ADS-B
Wed 01:59:57 PM 51.1650 0.0587 90° East 266 306 6,600 3,209 Climbing FlightAware ADS-B
Wed 02:00:16 PM 51.1651 0.0958 90° East 273 314 7,600 3,158 Climbing FlightAware ADS-B
Wed 02:00:35 PM 51.1653 0.1360 90° East 279 321 8,600 3,257 Climbing FlightAware ADS-B
Wed 02:00:51 PM 51.1654 0.1688 90° East 281 323 9,500 3,064 Climbing FlightAware ADS-B
Wed 02:01:22 PM 51.1657 0.2333 90° East 293 337 11,000 2,073 Climbing FlightAware ADS-B
Wed 02:01:46 PM 51.1665 0.2875 81° East 325 374 11,400 1,000 Climbing FlightAware ADS-B (EGHI / SOU)
Wed 02:02:04 PM 51.1762 0.3279 58° Northeast 348 400 11,700 2,217 Climbing FlightAware ADS-B
Wed 02:02:32 PM 51.2055 0.3816 48° Northeast 358 412 13,100 3,524 Climbing FlightAware ADS-B (EGLF / FAB)
Wed 02:03:07 PM 51.2434 0.4482 57° Northeast 326 375 15,400 2,943 Climbing FlightAware ADS-B (EGHI / SOU)
Wed 02:03:25 PM 51.2527 0.4897 82° East 346 398 15,700 1,176 Climbing FlightAware ADS-B
Wed 02:03:58 PM 51.2449 0.5740 103° East 370 426 16,400 1,663 Climbing FlightAware ADS-B (EGLC / LCY)
Wed 02:04:48 PM 51.2238 0.7123 104° East 384 442 18,000 1,938 Climbing FlightAware ADS-B (EGHI / SOU)
Wed 02:05:03 PM 51.2184 0.7509 100° East 384 442 18,500 2,100 Climbing FlightAware ADS-B (EGHH / BOH)
Wed 02:05:48 PM 51.2064 0.8760 99° East 393 452 20,100 2,103 Climbing FlightAware ADS-B
Wed 02:06:40 PM 51.1913 1.0309 99° East 400 460 21,900 1,846 Climbing FlightAware ADS-B (EGSR)
Wed 02:07:19 PM 51.1799 1.1439 99° East 406 467 22,900 1,586 Climbing FlightAware ADS-B
Wed 02:08:07 PM 51.1649 1.2864 100° East 414 476 24,200 1,562 Climbing FlightAware ADS-B (EGKK / LGW)
Wed 02:08:32 PM 51.1572 1.3610 100° East 414 476 24,800 1,527 Climbing FlightAware ADS-B (EGHH / BOH)
Wed 02:09:02 PM 51.1516 1.4144 99° East 423 487 25,600 1,574 Climbing FlightAware ADS-B (EGLF / FAB)
Wed 02:09:33 PM 51.1392 1.5383 99° East 428 493 26,400 1,475 Climbing FlightAware ADS-B
Wed 02:10:03 PM 51.1282 1.6430 99° East 430 495 27,100 1,277 Climbing FlightAware ADS-B (EGKK / LGW)
Wed 02:10:20 PM 51.1227 1.6939 99° East 434 499 27,400 1,200 Climbing FlightAware ADS-B (EHGR / GLZ)
Wed 02:10:38 PM 51.1161 1.7544 99° East 436 502 27,800 1,364 Climbing FlightAware ADS-B (EHGR / GLZ)
Wed 02:11:04 PM 51.1084 1.8238 100° East 438 504 28,400 1,333 Climbing FlightAware ADS-B (EGSM)
Wed 02:11:23 PM 51.1004 1.8954 99° East 443 510 28,800 1,158 Climbing FlightAware ADS-B (EGHI / SOU)
Wed 02:12:01 PM 51.0879 2.0061 100° East 450 518 29,500 1,083 Climbing FlightAware ADS-B (LRBS / BBU)
Wed 02:12:35 PM 51.0722 2.1269 101° East 452 520 30,100 1,102 Climbing FlightAware ADS-B
Wed 02:12:50 PM 51.0645 2.1641 100° East 446 513 30,400 1,292 Climbing FlightAware ADS-B
Wed 02:13:40 PM 51.0282 2.3134 111° Southeast 456 525 31,500 1,083 Climbing FlightAware ADS-B
Wed 02:14:02 PM 51.0066 2.4011 111° Southeast 455 524 31,700 1,171 Climbing FlightAware ADS-B (EHGR / GLZ)
Wed 02:14:21 PM 50.9916 2.4603 113° Southeast 454 522 32,300 1,535 Climbing FlightAware ADS-B
Wed 02:14:45 PM 50.9702 2.5350 114° Southeast 453 521 32,800 1,322 Climbing FlightAware ADS-B
Wed 02:15:20 PM 50.9399 2.6388 114° Southeast 449 517 33,600 1,247 Climbing FlightAware ADS-B (EHGR / GLZ)
Wed 02:16:02 PM 50.9042 2.7626 115° Southeast 451 519 34,400 1,102 Climbing FlightAware ADS-B (LRBS / BBU)
Wed 02:16:58 PM 50.8543 2.9337 115° Southeast 450 518 35,400 1,040 Climbing FlightAware ADS-B (EGSM)
Wed 02:17:17 PM 50.8458 2.9625 114° Southeast 449 517 35,700 844 Climbing FlightAware ADS-B (EGSM)
Wed 02:18:02 PM 50.7983 3.1237 115° Southeast 452 520 36,300 717 Climbing FlightAware ADS-B (LRBS / BBU)
Wed 02:18:49 PM 50.7561 3.2659 115° Southeast 454 522 36,800 560 Climbing FlightAware UK
Wed 02:19:17 PM 50.7316 3.3490 115° Southeast 456 525 37,000 194 Climbing FlightAware ADS-B
Wed 02:19:51 PM 50.7063 3.4327 115° Southeast 458 527 37,000  Level FlightAware ADS-B (EHEH / EIN)
Wed 02:20:22 PM 50.6736 3.5422 115° Southeast 458 527 37,000  Level FlightAware ADS-B (EHEH / EIN)
Wed 02:20:51 PM 50.6477 3.6279 115° Southeast 458 527 37,000  Level FlightAware ADS-B (EHEH / EIN)
Wed 02:21:22 PM 50.6201 3.7188 115° Southeast 454 522 37,000  Level FlightAware ADS-B (EHEH / EIN)
Wed 02:21:54 PM 50.5913 3.8154 116° Southeast 452 520 37,000  Level FlightAware ADS-B (EHGR / GLZ)
Wed 02:22:17 PM 50.5714 3.8805 115° Southeast 449 517 37,000  Level FlightAware ADS-B (EHEH / EIN)
Wed 02:22:46 PM 50.5446 3.9668 115° Southeast 447 514 37,000  Level FlightAware ADS-B (EHEH / EIN)
Wed 02:23:17 PM 50.5169 4.0581 115° Southeast 445 512 37,000  Level FlightAware ADS-B (EHEH / EIN)
Wed 02:23:42 PM 50.4978 4.1209 116° Southeast 445 512 37,000  Level FlightAware ADS-B (LRBS / BBU)
Wed 02:24:17 PM 50.4630 4.2332 115° Southeast 444 511 37,000  Level FlightAware ADS-B (EHEH / EIN)
Wed 02:24:47 PM 50.4364 4.3198 115° Southeast 444 511 37,000  Level FlightAware ADS-B (EHEH / EIN)
Wed 02:25:07 PM 50.4206 4.3706 115° Southeast 444 511 37,000  Level FlightAware ADS-B (EHEH / EIN)
Wed 02:25:24 PM 50.4027 4.4278 116° Southeast 446 513 37,000  Level FlightAware ADS-B
Wed 02:26:01 PM 50.3688 4.5360 116° Southeast 447 514 37,000  Level FlightAware ADS-B (EHGR / GLZ)
Wed 02:26:31 PM 50.3419 4.6218 116° Southeast 449 517 37,000  Level FlightAware ADS-B (EDKA / AAH)
Wed 02:27:01 PM 50.3141 4.7095 116° Southeast 451 519 37,000  Level FlightAware ADS-B (EDKA / AAH)
Wed 02:27:31 PM 50.2906 4.7837 116° Southeast 452 520 37,000  Level FlightAware ADS-B (EDKA / AAH)
Wed 02:28:02 PM 50.2610 4.8778 116° Southeast 453 521 37,000  Level FlightAware ADS-B (EDKA / AAH)
Wed 02:28:32 PM 50.2309 4.9722 116° Southeast 453 521 37,000  Level FlightAware ADS-B (EDKA / AAH)
Wed 02:29:01 PM 50.2025 5.0610 116° Southeast 455 524 37,000  Level FlightAware ADS-B (EDKA / AAH)
Wed 02:29:32 PM 50.1738 5.1504 116° Southeast 456 525 37,000  Level FlightAware ADS-B (EDKA / AAH)
Wed 02:29:54 PM 50.1529 5.2157 116° Southeast 453 521 37,000  Level FlightAware ADS-B
Wed 02:31:02 PM 50.0893 5.4117 116° Southeast 461 531 37,000  Level FlightAware ADS-B (EDKA / AAH)
Wed 02:31:31 PM 50.0593 5.5044 116° Southeast 461 531 37,000  Level FlightAware ADS-B (EDKA / AAH)
Wed 02:32:01 PM 50.0385 5.5677 116° Southeast 461 531 37,000  Level FlightAware ADS-B (EDKA / AAH)
Wed 02:32:17 PM 50.0164 5.6356 117° Southeast 461 531 37,000  Level FlightAware ADS-B (EHGR / GLZ)
Wed 02:32:32 PM 50.0039 5.6734 117° Southeast 462 532 37,000  Level FlightAware ADS-B (EDKA / AAH)
Wed 02:32:48 PM 49.9883 5.7211 117° Southeast 462 532 37,000  Level FlightAware ADS-B (EDKL)
Wed 02:33:27 PM 49.9488 5.8413 117° Southeast 461 531 37,000 82 Level FlightAware ADS-B (EDKL)
Wed 02:34:01 PM 49.9143 5.9453 117° Southeast 457 526 37,100  Climbing FlightAware ADS-B (EDKA / AAH)
Wed 02:34:31 PM 49.8870 6.0277 117° Southeast 455 524 37,000 -128 Descending FlightAware ADS-B (EDKA / AAH)
Wed 02:34:48 PM 49.8712 6.0754 117° Southeast 455 524 37,000  Level FlightAware ADS-B (EDKL)
Wed 02:35:27 PM 49.8376 6.1758 117° Southeast 454 522 37,000  Level FlightAware ADS-B (EDKL)
Wed 02:35:56 PM 49.8041 6.2759 117° Southeast 453 521 37,000  Level FlightAware ADS-B (EDKA / AAH)
Wed 02:36:26 PM 49.7853 6.3318 117° Southeast 452 520 37,000  Level FlightAware ADS-B (EDKA / AAH)
Wed 02:36:44 PM 49.7606 6.4052 117° Southeast 452 520 37,000  Level FlightAware ADS-B (EDKL)
Wed 02:37:26 PM 49.7174 6.5329 117° Southeast 449 517 37,000  Level FlightAware ADS-B (EDKA / AAH)
Wed 02:37:57 PM 49.6877 6.6196 117° Southeast 447 514 37,000  Level FlightAware ADS-B (EDKA / AAH)
Wed 02:38:26 PM 49.6599 6.7008 117° Southeast 445 512 37,000  Level FlightAware ADS-B (EDKA / AAH)
Wed 02:38:56 PM 49.6319 6.7833 117° Southeast 444 511 37,000  Level FlightAware ADS-B (EDKA / AAH)
Wed 02:39:27 PM 49.6050 6.8612 117° Southeast 443 510 37,000  Level FlightAware ADS-B (EDKA / AAH)
Wed 02:39:56 PM 49.5739 6.9520 117° Southeast 443 510 37,000  Level FlightAware ADS-B (EDKA / AAH)
Wed 02:40:26 PM 49.5498 7.0212 117° Southeast 442 509 37,000  Level FlightAware ADS-B (EDKA / AAH)
Wed 02:41:21 PM 49.4927 7.1867 118° Southeast 440 506 37,000  Level FlightAware ADS-B (EDKA / AAH)
Wed 02:41:51 PM 49.4711 7.2480 118° Southeast 440 506 37,000  Level FlightAware ADS-B (EDKA / AAH)
Wed 02:42:07 PM 49.4483 7.3136 118° Southeast 440 506 37,000  Level FlightAware ADS-B
Wed 02:42:22 PM 49.4403 7.3364 118° Southeast 440 506 37,000  Level FlightAware ADS-B (EDKA / AAH)
Wed 02:42:51 PM 49.4089 7.4263 118° Southeast 441 507 37,000  Level FlightAware ADS-B (EDKA / AAH)
Wed 02:45:01 PM 49.2578 7.7733 118° Southeast 440 506 37,000  Level FlightAware ADS-B (EDKA / AAH)
Wed 02:45:28 PM 49.7606 6.4052 131° Southeast 450 518 37,000  Level FlightAware ADS-B (EDKL)
Wed 02:49:24 PM 49.4825 7.2158 132° Southeast 455 524 37,000  Level FlightAware ADS-B
Wed 02:55:10 PM 48.4768 9.0974 132° Southeast 450 518 37,000  Level FlightAware ADS-B (ETSE)
Wed 02:55:57 PM 48.3419 9.3194 132° Southeast 445 512 37,000  Level FlightAware ADS-B
Wed 02:56:32 PM 48.3288 9.3411 133° Southeast 444 511 37,000  Level FlightAware ADS-B
Wed 02:57:04 PM 48.2589 9.4541 136° Southeast 444 511 37,000  Level FlightAware ADS-B
Wed 02:57:34 PM 48.2083 9.5211 143° Southeast 444 511 37,000  Level FlightAware ADS-B
Wed 02:58:39 PM 48.0912 9.6382 147° Southeast 440 506 37,000  Level FlightAware ADS-B
Wed 02:59:12 PM 48.0419 9.6860 147° Southeast 437 503 37,000  Level FlightAware ADS-B
Wed 03:00:16 PM 47.9280 9.7965 147° Southeast 437 503 37,000  Level FlightAware ADS-B
Wed 03:00:49 PM 47.8797 9.8431 147° Southeast 437 503 37,000  Level FlightAware ADS-B
Wed 03:01:24 PM 47.8159 9.9047 147° Southeast 437 503 37,000  Level FlightAware ADS-B
Wed 03:01:56 PM 47.7586 9.9597 147° Southeast 438 504 37,000  Level FlightAware ADS-B
Wed 03:02:26 PM 47.7076 10.0083 147° Southeast 438 504 37,000  Level FlightAware ADS-B (ETSE)
Wed 03:03:04 PM 47.6438 10.0692 147° Southeast 439 505 37,000  Level FlightAware ADS-B
Wed 03:03:37 PM 47.5915 10.1190 147° Southeast 440 506 37,000  Level FlightAware ADS-B (EDDM / MUC)
Wed 03:04:08 PM 47.5334 10.1742 147° Southeast 441 507 37,000  Level FlightAware ADS-B (ETSE)
Wed 03:04:41 PM 47.4804 10.2245 148° Southeast 442 509 37,000  Level FlightAware ADS-B
Wed 03:05:17 PM 47.4151 10.2863 147° Southeast 441 507 37,000  Level FlightAware ADS-B
Wed 03:05:47 PM 47.3619 10.3363 147° Southeast 442 509 37,000  Level FlightAware ADS-B (EDDM / MUC)
Wed 03:06:12 PM 47.3336 10.3630 147° Southeast 441 507 37,000  Level FlightAware ADS-B
Wed 03:06:28 PM 47.2936 10.4006 148° Southeast 440 506 37,000  Level FlightAware ADS-B (ETSE)
Wed 03:07:02 PM 47.2437 10.4472 148° Southeast 440 506 37,000  Level FlightAware ADS-B
Wed 03:07:49 PM 47.1627 10.5321 138° Southeast 438 504 37,000  Level FlightAware ADS-B (ETSE)
Wed 03:08:15 PM 47.1573 10.5393 135° Southeast 438 504 37,000  Level FlightAware ADS-B
Wed 03:09:03 PM 47.1118 10.6094 133° Southeast 439 505 37,000  Level FlightAware ADS-B (EDDM / MUC)
Wed 03:09:45 PM 46.9997 10.7863 133° Southeast 439 505 37,000  Level FlightAware ADS-B (EDDM / MUC)
Wed 03:10:29 PM 46.9479 10.8674 133° Southeast 439 505 37,000  Level FlightAware ADS-B (ETSE)
Wed 03:11:11 PM 46.8786 10.9760 133° Southeast 439 505 37,000  Level FlightAware ADS-B (ETSE)
Wed 03:11:52 PM 46.8251 11.0594 133° Southeast 441 507 37,000  Level FlightAware ADS-B (ETSE)
Wed 03:12:30 PM 46.7708 11.1442 133° Southeast 443 510 37,000  Level FlightAware ADS-B (ETSE)
Wed 03:13:07 PM 46.7201 11.2229 133° Southeast 446 513 37,000  Level FlightAware ADS-B (ETSE)
Wed 03:13:43 PM 46.6708 11.2993 133° Southeast 446 513 37,000  Level FlightAware ADS-B (EDDM / MUC)
Wed 03:14:22 PM 46.6113 11.3910 133° Southeast 446 513 37,000  Level FlightAware ADS-B (ETSE)
Wed 03:15:11 PM 46.5427 11.4965 133° Southeast 446 513 37,000  Level FlightAware ADS-B (EDDM / MUC)
Wed 03:15:57 PM 46.4769 11.5975 134° Southeast 446 513 37,000  Level FlightAware ADS-B (EDDM / MUC)
Wed 03:16:36 PM 46.4210 11.6830 134° Southeast 446 513 37,000  Level FlightAware ADS-B (EDDM / MUC)
Wed 03:17:17 PM 46.3632 11.7710 133° Southeast 446 513 37,000  Level FlightAware ADS-B (EDDM / MUC)
Wed 03:18:05 PM 46.2956 11.8736 134° Southeast 446 513 37,000  Level FlightAware ADS-B (EDDM / MUC)
Wed 03:18:45 PM 46.2396 11.9583 134° Southeast 446 513 37,000  Level FlightAware ADS-B (EDDM / MUC)
Wed 03:19:26 PM 46.1800 12.0482 134° Southeast 446 513 37,000  Level FlightAware ADS-B (EDDM / MUC)
Wed 03:20:04 PM 46.1251 12.1305 134° Southeast 447 514 37,000  Level FlightAware ADS-B (EDDM / MUC)
Wed 03:20:45 PM 46.0669 12.2177 134° Southeast 447 514 37,000  Level FlightAware ADS-B (EDDM / MUC)
Wed 03:21:27 PM 46.0068 12.3078 134° Southeast 448 516 37,000  Level FlightAware ADS-B (EDDM / MUC)
Wed 03:21:58 PM 45.9640 12.3714 134° Southeast 448 516 37,000  Level FlightAware ADS-B (ETSE)
Wed 03:22:30 PM 45.9155 12.4432 134° Southeast 449 517 37,000  Level FlightAware ADS-B (EDDM / MUC)
Wed 03:23:15 PM 45.8513 12.5384 134° Southeast 450 518 37,000  Level FlightAware ADS-B (EDDM / MUC)
Wed 03:23:55 PM 45.7993 12.6147 134° Southeast 449 517 37,000  Level FlightAware ADS-B (ETSE)
Wed 03:24:31 PM 45.7417 12.6995 134° Southeast 446 513 37,000  Level FlightAware ADS-B (EDDM / MUC)
Wed 03:25:06 PM 45.6987 12.7624 134° Southeast 446 513 37,000  Level FlightAware ADS-B (EDDM / MUC)
Wed 03:25:52 PM 45.6265 12.8679 134° Southeast 449 517 37,000  Level FlightAware ADS-B (EDDM / MUC)
Wed 03:26:40 PM 45.5612 12.9631 135° Southeast 450 518 37,000  Level FlightAware ADS-B (ETSE)
Wed 03:28:01 PM 45.4362 13.1440 135° Southeast 450 518 37,000  Level FlightAware ADS-B (EDDM / MUC)
Wed 03:28:42 PM 45.3780 13.2278 135° Southeast 450 518 37,000  Level FlightAware ADS-B (EDDM / MUC)
Wed 03:52:33 PM 43.4581 16.5237 128° Southeast 472 543 37,000  Level FlightAware ADS-B (LIBX)
Wed 03:53:02 PM 43.4180 16.5935 128° Southeast 472 543 37,000  Level FlightAware ADS-B (LIBX)
Wed 03:53:52 PM 43.3496 16.7121 128° Southeast 476 548 37,000  Level FlightAware ADS-B (LIBX)
Wed 03:54:08 PM 43.3286 16.7483 128° Southeast 476 548 37,000  Level FlightAware ADS-B (LIBX)
Wed 03:54:52 PM 43.2675 16.8536 128° Southeast 478 550 37,000  Level FlightAware ADS-B (LIBX)
Wed 03:55:18 PM 43.2318 16.9147 128° Southeast 480 552 37,000  Level FlightAware ADS-B (LIBX)
Wed 03:55:52 PM 43.2009 16.9674 128° Southeast 480 552 37,000  Level FlightAware ADS-B (LIBX)
Wed 03:56:23 PM 43.1423 17.0679 128° Southeast 481 554 37,000  Level FlightAware ADS-B (LIBX)
Wed 03:56:53 PM 43.1013 17.1377 128° Southeast 481 554 37,000  Level FlightAware ADS-B (LIBX)
Wed 03:57:22 PM 43.0587 17.2099 128° Southeast 482 555 37,000  Level FlightAware ADS-B (LIBX)
Wed 03:57:53 PM 43.0172 17.2810 128° Southeast 482 555 37,000  Level FlightAware ADS-B (LIBX)
Wed 03:58:22 PM 42.9751 17.3519 128° Southeast 482 555 37,000  Level FlightAware ADS-B (LIBX)
Wed 03:58:52 PM 42.9369 17.4168 128° Southeast 482 555 37,000  Level FlightAware ADS-B (LIBX)
Wed 03:59:22 PM 42.8920 17.4926 128° Southeast 482 555 37,000 -900 Level FlightAware ADS-B (LIBX)
Wed 03:59:52 PM 42.8489 17.5646 129° Southeast 484 557 36,100 -1,672 Descending FlightAware ADS-B (LIBX)
Wed 04:00:23 PM 42.8067 17.6353 129° Southeast 482 555 35,300 -1,300 Descending FlightAware ADS-B (LIBX)
Wed 04:00:52 PM 42.7648 17.7052 129° Southeast 480 552 34,800 -1,017 Descending FlightAware ADS-B (LIBX)
Wed 04:01:22 PM 42.7226 17.7756 129° Southeast 476 548 34,300 -1,000 Descending FlightAware ADS-B (LIBX)
Wed 04:01:52 PM 42.6810 17.8447 129° Southeast 475 547 33,800 -1,000 Descending FlightAware ADS-B (LIBX)
Wed 04:02:22 PM 42.6390 17.9145 129° Southeast 476 548 33,300 -1,279 Descending FlightAware ADS-B (LIBX)
Wed 04:02:53 PM 42.5976 17.9832 129° Southeast 474 545 32,500 -1,800 Descending FlightAware ADS-B (LIBX)
Wed 04:03:22 PM 42.5562 18.0518 129° Southeast 465 535 31,500 -2,000 Descending FlightAware ADS-B (LIBX)
Wed 04:03:53 PM 42.5155 18.1189 129° Southeast 457 526 30,500 -2,000 Descending FlightAware ADS-B (LIBX)
Wed 04:04:22 PM 42.4760 18.1838 129° Southeast 449 517 29,500 -2,441 Descending FlightAware ADS-B (LIBX)
Wed 04:04:52 PM 42.4365 18.2485 129° Southeast 451 519 28,100 -2,557 Descending FlightAware ADS-B (LIBX)
Wed 04:05:23 PM 42.3961 18.3147 129° Southeast 447 514 26,900 -1,672 Descending FlightAware ADS-B (LIBX)
Wed 04:05:53 PM 42.3576 18.3782 129° Southeast 429 494 26,400 -1,322 Descending FlightAware ADS-B (LIBX)
Wed 04:06:22 PM 42.3211 18.4373 129° Southeast 416 479 25,600 -1,932 Descending FlightAware ADS-B (LIBX)
Wed 04:06:52 PM 42.2839 18.4982 129° Southeast 412 474 24,500 -1,800 Descending FlightAware ADS-B (LIBX)
Wed 04:07:22 PM 42.2483 18.5563 129° Southeast 396 456 23,800 -1,700 Descending FlightAware ADS-B (LIBX)
Wed 04:07:52 PM 42.2132 18.6127 129° Southeast 391 450 22,800 -1,900 Descending FlightAware ADS-B (LIBX)
Wed 04:08:22 PM 42.1789 18.6682 129° Southeast 385 443 21,900 -1,900 Descending FlightAware ADS-B (LIBX)
Wed 04:08:52 PM 42.1450 18.7230 129° Southeast 379 436 20,900 -1,900 Descending FlightAware ADS-B (LIBX)
Wed 04:09:22 PM 42.1117 18.7768 129° Southeast 372 428 20,000 -1,869 Descending FlightAware ADS-B (LIBX)
Wed 04:09:53 PM 42.0790 18.8292 129° Southeast 369 425 19,000 -1,900 Descending FlightAware ADS-B (LIBX)
Wed 04:10:22 PM 42.0479 18.8794 129° Southeast 367 422 18,100 -1,831 Descending FlightAware ADS-B (LIBX)
Wed 04:10:52 PM 42.0135 18.9342 129° Southeast 357 411 17,200 -1,800 Descending FlightAware ADS-B (LIBX)
Wed 04:11:22 PM 41.9829 18.9837 129° Southeast 352 405 16,300 -1,700 Descending FlightAware ADS-B (LIBX)
Wed 04:11:52 PM 41.9509 19.0347 129° Southeast 345 397 15,500 -1,800 Descending FlightAware ADS-B (LIBX)
Wed 04:12:22 PM 41.9200 19.0844 130° Southeast 343 395 14,500 -1,672 Descending FlightAware ADS-B (LIBX)
Wed 04:12:53 PM 41.8900 19.1327 129° Southeast 333 383 13,800 -1,600 Descending FlightAware ADS-B (LIBX)
Wed 04:13:22 PM 41.8617 19.1802 123° Southeast 330 380 12,900 -1,700 Descending FlightAware ADS-B (LIBX)
Wed 04:13:53 PM 41.8400 19.2333 118° Southeast 322 371 12,100 -1,900 Descending FlightAware ADS-B (LIBX)
Wed 04:14:22 PM 41.8184 19.2862 118° Southeast 319 367 11,000 -1,831 Descending FlightAware ADS-B (LIBX)
Wed 04:14:52 PM 41.7977 19.3361 119° Southeast 302 348 10,300 -1,320 Descending FlightAware ADS-B (LIBX)
Wed 04:15:12 PM 41.7842 19.3683 119° Southeast 291 335 9,900 -1,371 Descending FlightAware ADS-B (LIBX)
Wed 04:15:27 PM 41.7743 19.3917 119° Southeast 288 331 9,500 -1,800 Descending FlightAware ADS-B (LIBX)
Wed 04:15:42 PM 41.7651 19.4142 119° Southeast 286 329 9,000 -2,000 Descending FlightAware ADS-B (LIBX)
Wed 04:15:57 PM 41.7553 19.4370 118° Southeast 283 326 8,500 -2,000 Descending FlightAware ADS-B (LIBX)
Wed 04:16:12 PM 41.7463 19.4597 118° Southeast 281 323 8,000 -2,000 Descending FlightAware ADS-B (LIBX)
Wed 04:16:27 PM 41.7364 19.4837 118° Southeast 277 319 7,500 -1,935 Descending FlightAware ADS-B (LIBX)
Wed 04:16:43 PM 41.7272 19.5063 118° Southeast 273 314 7,000 -1,875 Descending FlightAware ADS-B (LIBX)
Wed 04:19:00 PM 41.5129 19.6535 153° Southeast  Level Estimated
Wed 04:20:00 PM 41.4190 19.7176 153° Southeast  Level Estimated
Wed 04:21:00 PM 41.4147 19.7206 153° Southeast  Level Estimated
Wed 04:22:00 PM 41.4147 19.7206 North  Level Estimated
Wed 04:23:00 PM 41.4147 19.7206 North  Level Estimated
Wed 04:24:00 PM 41.4147 19.7206 North  Level Estimated
Wed 04:25:00 PM 41.4147 19.7206 North  Level Estimated
Wed 04:26:00 PM 41.4147 19.7206 North  Level Estimated
Wed 04:27:00 PM 41.4147 19.7206 North  Level Estimated
Wed 04:28:00 PM 41.4147 19.7206 North  Level Estimated
Wed 04:29:00 PM 41.4147 19.7206 North  Level Estimated
Wed 04:30:00 PM 41.4147 19.7206 North  Level Estimated
Wed 04:31:00 PM 41.4147 19.7206 North  Level Estimated
Wed 04:32:00 PM 41.4147 19.7206 North  Level Estimated

Login

Don't have an account? Register now (free) for customized features, flight alerts, and more!